Time;durP1;ratioP1;P1;durP2;ratioP2;P2;SDS_P1;SDS_P2;PMS_P1;PMS_P2;Temp;Humidity;BMP_temperature;BMP_pressure;BME280_temperature;BME280_humidity;BME280_pressure;Samples;Min_cycle;Max_cycle;Signal;HPM_P1;HPM_P2
2023/04/08 00:01:58;;;;;;;5.20;2.50;;;;;;;8.98;100.00;100427.52;105649;1259;62054;-55
2023/04/08 00:04:27;;;;;;;8.10;2.80;;;;;;;8.98;100.00;100426.96;105862;1259;61253;-58
2023/04/08 00:06:56;;;;;;;7.50;2.90;;;;;;;9.00;100.00;100423.95;105193;1260;75349;-56
2023/04/08 00:09:25;;;;;;;11.10;3.40;;;;;;;9.02;100.00;100426.36;105374;1259;69359;-56
2023/04/08 00:11:53;;;;;;;7.90;2.50;;;;;;;9.04;100.00;100423.95;105288;1257;73971;-56
2023/04/08 00:14:22;;;;;;;10.30;2.50;;;;;;;9.05;100.00;100425.86;105303;1260;61189;-57
2023/04/08 00:16:51;;;;;;;9.50;2.60;;;;;;;9.06;100.00;100423.75;105207;1259;61849;-53
2023/04/08 00:19:20;;;;;;;6.90;3.00;;;;;;;9.06;100.00;100419.06;105426;1255;76221;-55
2023/04/08 00:21:48;;;;;;;10.50;3.00;;;;;;;9.06;100.00;100422.34;104957;1258;68875;-56
2023/04/08 00:24:18;;;;;;;6.90;2.40;;;;;;;9.04;100.00;100419.02;105306;1259;74276;-56
2023/04/08 00:26:46;;;;;;;7.70;2.80;;;;;;;9.02;100.00;100419.08;105335;1257;61894;-57
2023/04/08 00:29:15;;;;;;;8.60;3.50;;;;;;;9.00;100.00;100424.98;105402;1260;61812;-55
2023/04/08 00:31:44;;;;;;;11.40;3.90;;;;;;;8.98;100.00;100429.20;105285;1259;75553;-56
2023/04/08 00:34:13;;;;;;;7.90;3.90;;;;;;;8.97;100.00;100422.28;105179;1258;67327;-57
2023/04/08 00:36:42;;;;;;;6.80;3.30;;;;;;;8.94;100.00;100426.02;105292;1260;74178;-54
2023/04/08 00:39:11;;;;;;;11.80;5.20;;;;;;;8.92;100.00;100430.46;105241;1257;61859;-54
2023/04/08 00:41:40;;;;;;;13.60;5.50;;;;;;;8.91;100.00;100428.90;105239;1262;61359;-55
2023/04/08 00:44:08;;;;;;;9.40;3.90;;;;;;;8.91;100.00;100425.85;105303;1256;75829;-55
2023/04/08 00:46:40;;;;;;;10.10;3.40;;;;;;;8.88;100.00;100427.45;105390;1260;68457;-56
2023/04/08 00:49:09;;;;;;;9.80;2.90;;;;;;;8.83;100.00;100428.40;105149;1263;73155;-55
2023/04/08 00:51:38;;;;;;;8.20;3.20;;;;;;;8.82;100.00;100425.12;105297;1257;61453;-56
2023/04/08 00:54:07;;;;;;;7.60;2.80;;;;;;;8.82;100.00;100426.00;105365;1260;61789;-55
2023/04/08 00:56:37;;;;;;;8.30;3.60;;;;;;;8.81;100.00;100426.58;105281;1259;75143;-55
2023/04/08 00:59:06;;;;;;;7.00;3.20;;;;;;;8.81;100.00;100425.79;105201;1260;67643;-56
2023/04/08 01:01:53;;;;;;;8.60;3.20;;;;;;;8.78;100.00;100428.65;105475;1259;71924;-59
2023/04/08 01:04:46;;;;;;;7.60;2.70;;;;;;;8.75;100.00;100429.73;105161;1260;61205;-55
2023/04/08 01:07:26;;;;;;;;;;;;;;;8.72;100.00;100433.08;105592;1260;61388;-56
2023/04/08 01:09:58;;;;;;;8.50;3.60;;;;;;;8.72;100.00;100435.59;105217;1258;74404;-56
2023/04/08 01:12:28;;;;;;;7.40;3.30;;;;;;;8.70;100.00;100437.31;105071;1261;69193;-54
2023/04/08 01:15:04;;;;;;;8.00;2.80;;;;;;;8.68;100.00;100440.89;105177;1258;74495;-55
2023/04/08 01:17:35;;;;;;;8.20;2.80;;;;;;;8.67;100.00;100437.61;105168;1258;61321;-55
2023/04/08 01:20:04;;;;;;;6.40;3.30;;;;;;;8.70;100.00;100440.48;105117;1255;61984;-56
2023/04/08 01:22:59;;;;;;;6.50;2.90;;;;;;;8.70;100.00;100435.74;105390;1257;76765;-57
2023/04/08 01:25:36;;;;;;;11.60;3.60;;;;;;;8.68;100.00;100439.50;105113;1258;67436;-55
2023/04/08 01:28:07;;;;;;;7.80;3.40;;;;;;;8.68;100.00;100439.34;105142;1261;73175;-59
2023/04/08 01:30:38;;;;;;;7.50;3.30;;;;;;;8.67;100.00;100444.45;105527;1257;61929;-59
2023/04/08 01:33:07;;;;;;;11.90;3.80;;;;;;;8.67;100.00;100442.38;105317;1255;61296;-54
2023/04/08 01:35:36;;;;;;;7.90;3.20;;;;;;;8.64;100.00;100444.18;105042;1262;76202;-54
2023/04/08 01:38:06;;;;;;;8.60;3.10;;;;;;;8.63;100.00;100444.14;105136;1263;67679;-57
2023/04/08 01:40:34;;;;;;;11.10;3.60;;;;;;;8.63;100.00;100446.71;105311;1259;74203;-56
2023/04/08 01:43:04;;;;;;;8.10;3.90;;;;;;;8.64;100.00;100448.55;105348;1259;61527;-55
2023/04/08 01:45:33;;;;;;;6.70;3.50;;;;;;;8.60;100.00;100449.48;105261;1255;61907;-57
2023/04/08 01:48:02;;;;;;;9.60;2.80;;;;;;;8.58;100.00;100451.17;105478;1259;76016;-57
2023/04/08 01:50:32;;;;;;;12.20;3.80;;;;;;;8.56;100.00;100458.77;105168;1264;68609;-57
2023/04/08 01:53:01;;;;;;;8.60;3.30;;;;;;;8.53;100.00;100460.98;105176;1255;72274;-54
2023/04/08 01:55:31;;;;;;;10.30;3.00;;;;;;;8.51;100.00;100456.86;105010;1256;62226;-56
2023/04/08 01:58:00;;;;;;;8.10;3.10;;;;;;;8.49;100.00;100460.67;105213;1260;61649;-60
2023/04/08 02:00:30;;;;;;;9.50;3.40;;;;;;;8.47;100.00;100462.09;105070;1257;76183;-54
2023/04/08 02:03:01;;;;;;;5.10;2.70;;;;;;;8.46;100.00;100461.42;105491;1260;68546;-55
2023/04/08 02:05:30;;;;;;;9.70;3.80;;;;;;;8.43;100.00;100465.32;105124;1263;73126;-54
2023/04/08 02:07:59;;;;;;;8.60;3.60;;;;;;;8.42;100.00;100468.25;105431;1259;62019;-58
2023/04/08 02:10:32;;;;;;;7.50;3.00;;;;;;;8.41;100.00;100463.98;104941;1262;61270;-54
2023/04/08 02:13:02;;;;;;;13.10;3.50;;;;;;;8.41;100.00;100466.77;105143;1255;76126;-55
2023/04/08 02:15:33;;;;;;;12.10;3.40;;;;;;;8.42;100.00;100470.13;105616;1257;68575;-57
2023/04/08 02:18:13;;;;;;;10.40;3.50;;;;;;;8.44;100.00;100468.20;105072;1260;73229;-55
2023/04/08 02:20:52;;;;;;;9.50;3.00;;;;;;;8.47;100.00;100468.77;104876;1258;62207;-55
2023/04/08 02:23:28;;;;;;;7.80;2.90;;;;;;;8.49;100.00;100474.34;105438;1258;61946;-58
2023/04/08 02:25:56;;;;;;;9.70;3.30;;;;;;;8.49;100.00;100476.46;104942;1262;75199;-55
2023/04/08 02:28:27;;;;;;;17.40;3.60;;;;;;;8.47;100.00;100476.33;105193;1256;68388;-54
2023/04/08 02:30:56;;;;;;;7.90;3.40;;;;;;;8.45;100.00;100477.23;105004;1256;74439;-56
2023/04/08 02:33:27;;;;;;;6.30;2.50;;;;;;;8.44;100.00;100479.08;104925;1260;63537;-55
2023/04/08 02:35:57;;;;;;;12.30;3.60;;;;;;;8.43;100.00;100479.77;105183;1261;61204;-55
2023/04/08 02:38:32;;;;;;;11.80;4.30;;;;;;;8.41;100.00;100482.48;105174;1263;76169;-54
2023/04/08 02:41:01;;;;;;;8.60;3.20;;;;;;;8.40;100.00;100485.41;105410;1260;68893;-58
2023/04/08 02:43:32;;;;;;;5.90;3.00;;;;;;;8.38;100.00;100488.55;104893;1261;73178;-55
2023/04/08 02:46:09;;;;;;;14.10;3.70;;;;;;;8.37;100.00;100492.98;105069;1260;63569;-55
2023/04/08 02:48:39;;;;;;;7.70;2.80;;;;;;;8.37;100.00;100497.12;104956;1261;61268;-58
2023/04/08 02:51:07;;;;;;;9.10;3.90;;;;;;;8.38;100.00;100500.68;105041;1260;75665;-54
2023/04/08 02:53:38;;;;;;;8.00;2.90;;;;;;;8.39;100.00;100500.06;105114;1257;68435;-54
2023/04/08 02:56:10;;;;;;;10.40;2.80;;;;;;;8.39;100.00;100500.27;105174;1257;74170;-54
2023/04/08 02:58:39;;;;;;;10.50;3.10;;;;;;;8.38;100.00;100503.16;105141;1260;61206;-58
2023/04/08 03:01:08;;;;;;;10.00;3.70;;;;;;;8.40;100.00;100503.10;105150;1258;61845;-55
2023/04/08 03:03:39;;;;;;;5.90;2.80;;;;;;;8.42;100.00;100502.38;105206;1257;76254;-54
2023/04/08 03:06:08;;;;;;;7.40;2.70;;;;;;;8.42;100.00;100505.42;105256;1260;66773;-54
2023/04/08 03:08:37;;;;;;;6.60;3.70;;;;;;;8.44;100.00;100507.01;105207;1261;74087;-54
2023/04/08 03:11:06;;;;;;;6.80;3.10;;;;;;;8.45;100.00;100508.44;105188;1260;61343;-55
2023/04/08 03:13:35;;;;;;;7.60;3.60;;;;;;;8.48;100.00;100514.37;105188;1260;62171;-55
2023/04/08 03:16:10;;;;;;;7.30;2.80;;;;;;;8.48;100.00;100516.25;104926;1261;76539;-56
2023/04/08 03:18:39;;;;;;;7.50;2.70;;;;;;;8.48;100.00;100521.46;105449;1257;68109;-57
2023/04/08 03:21:07;;;;;;;10.60;3.60;;;;;;;8.47;100.00;100519.11;105126;1258;74514;-55
2023/04/08 03:23:36;;;;;;;10.70;2.80;;;;;;;8.45;100.00;100521.56;105168;1261;61807;-54
2023/04/08 03:26:05;;;;;;;8.10;3.20;;;;;;;8.46;100.00;100527.73;105182;1257;61039;-56
2023/04/08 03:28:34;;;;;;;5.90;2.70;;;;;;;8.48;100.00;100524.19;104840;1260;76067;-58
2023/04/08 03:31:03;;;;;;;8.80;3.30;;;;;;;8.54;100.00;100525.52;105191;1261;68663;-54
2023/04/08 03:33:32;;;;;;;7.10;3.20;;;;;;;8.61;100.00;100529.09;105291;1258;73074;-54
2023/04/08 03:36:01;;;;;;;8.20;3.10;;;;;;;8.73;100.00;100530.73;105184;1257;62561;-54
2023/04/08 03:38:30;;;;;;;6.30;2.40;;;;;;;8.89;100.00;100533.27;105515;1258;61348;-55
2023/04/08 03:40:58;;;;;;;9.70;2.70;;;;;;;9.11;100.00;100529.23;105082;1257;75360;-56
2023/04/08 03:43:27;;;;;;;10.20;3.00;;;;;;;9.38;100.00;100532.14;105207;1260;67361;-55
2023/04/08 03:45:55;;;;;;;6.70;2.60;;;;;;;9.73;100.00;100533.52;105189;1260;74592;-56
2023/04/08 03:48:25;;;;;;;5.10;2.40;;;;;;;10.07;100.00;100534.40;105183;1257;63307;-56
2023/04/08 03:50:54;;;;;;;9.30;3.50;;;;;;;10.38;100.00;100530.73;105346;1261;61737;-55
2023/04/08 03:53:22;;;;;;;6.10;2.70;;;;;;;10.71;100.00;100534.19;105190;1260;75557;-56
2023/04/08 03:55:51;;;;;;;9.60;2.90;;;;;;;11.03;100.00;100541.66;105263;1256;67683;-54
2023/04/08 03:58:20;;;;;;;9.70;3.40;;;;;;;11.32;100.00;100532.58;105142;1257;74175;-56
2023/04/08 04:00:48;;;;;;;7.10;3.30;;;;;;;11.57;100.00;100535.50;105195;1261;61622;-55
2023/04/08 04:03:18;;;;;;;5.60;2.90;;;;;;;11.75;100.00;100530.77;105161;1257;61237;-56
2023/04/08 04:05:52;;;;;;;7.10;2.80;;;;;;;11.91;100.00;100532.34;105059;1258;74736;-56
2023/04/08 04:08:21;;;;;;;6.90;3.60;;;;;;;12.02;100.00;100533.13;105635;1256;68384;-56
2023/04/08 04:10:50;;;;;;;11.00;3.70;;;;;;;12.05;100.00;100532.14;105082;1258;74035;-55
2023/04/08 04:13:19;;;;;;;7.40;3.10;;;;;;;12.02;100.00;100534.42;105198;1256;61841;-55
2023/04/08 04:15:47;;;;;;;11.70;3.80;;;;;;;11.93;100.00;100541.33;105203;1258;61375;-55
2023/04/08 04:18:16;;;;;;;13.60;2.90;;;;;;;11.83;100.00;100542.98;105166;1257;76369;-55
2023/04/08 04:20:44;;;;;;;8.30;3.50;;;;;;;11.75;100.00;100550.09;104817;1260;67578;-56
2023/04/08 04:23:13;;;;;;;8.60;3.10;;;;;;;11.65;100.00;100548.84;105187;1261;73566;-55
2023/04/08 04:25:43;;;;;;;8.70;3.30;;;;;;;11.56;100.00;100552.11;105249;1257;61390;-56
2023/04/08 04:28:16;;;;;;;7.60;2.80;;;;;;;11.46;100.00;100552.59;105084;1257;61142;-57
2023/04/08 04:30:47;;;;;;;8.30;3.10;;;;;;;11.38;100.00;100556.22;105148;1257;76233;-56
2023/04/08 04:33:15;;;;;;;7.70;3.30;;;;;;;11.34;100.00;100555.61;105077;1258;68549;-55
2023/04/08 04:35:45;;;;;;;6.70;2.60;;;;;;;11.31;100.00;100555.28;105010;1258;73971;-55
2023/04/08 04:38:13;;;;;;;10.40;3.40;;;;;;;11.29;100.00;100562.61;105070;1261;61255;-58
2023/04/08 04:40:43;;;;;;;10.50;3.00;;;;;;;11.27;100.00;100569.77;105183;1257;61243;-60
2023/04/08 04:43:12;;;;;;;8.20;3.00;;;;;;;11.31;100.00;100564.48;105124;1257;75172;-55
2023/04/08 04:45:46;;;;;;;9.50;2.90;;;;;;;11.45;100.00;100566.32;105067;1259;67785;-55
2023/04/08 04:48:15;;;;;;;5.50;2.50;;;;;;;11.62;100.00;100563.61;105539;1257;74184;-58
2023/04/08 04:50:44;;;;;;;6.20;2.60;;;;;;;11.78;100.00;100568.98;105143;1258;61247;-56
2023/04/08 04:53:19;;;;;;;8.40;3.40;;;;;;;12.03;100.00;100572.02;105025;1257;61833;-55
2023/04/08 04:55:47;;;;;;;6.10;2.60;;;;;;;12.37;100.00;100567.14;105174;1258;76165;-54
2023/04/08 04:58:17;;;;;;;8.70;2.70;;;;;;;12.80;100.00;100569.31;105496;1260;67656;-55
2023/04/08 05:00:46;;;;;;;8.00;2.40;;;;;;;13.23;100.00;100574.83;105039;1261;72312;-54
2023/04/08 05:03:15;;;;;;;6.90;2.70;;;;;;;13.66;100.00;100574.48;105488;1256;62739;-56
2023/04/08 05:05:54;;;;;;;5.60;2.10;;;;;;;14.00;100.00;100577.14;105115;1257;61149;-54
2023/04/08 05:08:24;;;;;;;5.90;2.50;;;;;;;14.26;100.00;100580.34;105195;1261;75935;-56
2023/04/08 05:10:55;;;;;;;6.00;2.30;;;;;;;14.56;100.00;100580.40;105143;1257;69532;-54
2023/04/08 05:13:26;;;;;;;8.40;2.30;;;;;;;15.07;100.00;100582.33;105227;1257;74312;-54
2023/04/08 05:15:59;;;;;;;10.90;2.20;;;;;;;15.65;100.00;100585.80;105063;1258;61308;-54
2023/04/08 05:18:27;;;;;;;4.60;2.10;;;;;;;16.01;100.00;100589.97;105228;1260;61109;-54
2023/04/08 05:20:56;;;;;;;8.00;2.30;;;;;;;16.14;100.00;100589.34;105217;1257;76111;-57
2023/04/08 05:23:25;;;;;;;5.00;2.00;;;;;;;16.16;100.00;100594.17;105506;1257;67512;-60
2023/04/08 05:25:54;;;;;;;5.00;2.50;;;;;;;16.15;100.00;100590.71;105096;1258;74576;-59
2023/04/08 05:28:26;;;;;;;6.50;3.10;;;;;;;16.14;100.00;100597.92;105277;1261;61080;-58
2023/04/08 05:30:55;;;;;;;7.90;2.70;;;;;;;16.10;100.00;100597.28;105270;1257;61470;-54
2023/04/08 05:33:25;;;;;;;8.10;2.40;;;;;;;15.93;100.00;100600.85;105431;1256;76069;-60
2023/04/08 05:35:57;;;;;;;10.30;2.50;;;;;;;15.62;100.00;100603.63;105327;1258;67438;-56
2023/04/08 05:38:26;;;;;;;6.40;2.50;;;;;;;15.25;100.00;100611.63;105482;1255;72171;-55
2023/04/08 05:40:55;;;;;;;6.10;2.30;;;;;;;14.95;100.00;100609.37;105406;1259;61312;-55
2023/04/08 05:43:24;;;;;;;8.30;2.60;;;;;;;14.76;100.00;100616.55;105508;1256;61256;-58
2023/04/08 05:45:57;;;;;;;4.90;2.30;;;;;;;14.75;100.00;100614.91;105343;1256;76274;-57
2023/04/08 05:48:27;;;;;;;5.90;2.70;;;;;;;14.79;100.00;100617.56;105354;1256;68821;-55
2023/04/08 05:51:03;;;;;;;8.30;2.80;;;;;;;14.84;100.00;100617.20;105119;1257;74087;-58
2023/04/08 05:53:32;;;;;;;5.10;2.00;;;;;;;14.90;100.00;100616.80;105339;1259;61984;-55
2023/04/08 05:56:01;;;;;;;8.00;2.40;;;;;;;15.02;100.00;100618.37;105378;1259;61725;-56
2023/04/08 05:58:30;;;;;;;5.20;2.10;;;;;;;15.24;100.00;100616.20;108983;1255;74028;-55
2023/04/08 06:00:58;;;;;;;7.00;2.70;;;;;;;15.51;100.00;100623.41;109033;1255;69326;-56
2023/04/08 06:03:29;;;;;;;5.20;2.60;;;;;;;15.65;100.00;100619.99;109073;1255;73652;-54
2023/04/08 06:05:58;;;;;;;5.80;2.20;;;;;;;15.68;100.00;100622.23;109103;1256;61082;-54
2023/04/08 06:08:27;;;;;;;6.40;2.40;;;;;;;15.71;100.00;100619.71;108974;1257;61843;-54
2023/04/08 06:11:02;;;;;;;6.70;2.30;;;;;;;15.75;100.00;100621.33;108976;1256;73310;-56
2023/04/08 06:13:34;;;;;;;7.60;2.20;;;;;;;15.81;100.00;100620.88;108979;1255;67878;-55
2023/04/08 06:16:13;;;;;;;5.70;2.30;;;;;;;15.98;100.00;100621.91;109011;1256;73683;-55
2023/04/08 06:18:43;;;;;;;7.40;2.00;;;;;;;16.05;100.00;100622.04;108975;1256;60111;-59
2023/04/08 06:21:11;;;;;;;5.00;2.00;;;;;;;15.96;100.00;100628.99;109038;1259;60404;-55
2023/04/08 06:23:39;;;;;;;7.70;2.30;;;;;;;16.05;100.00;100623.33;109036;1256;75612;-59
2023/04/08 06:26:08;;;;;;;5.00;2.00;;;;;;;16.27;99.93;100628.31;109099;1256;67763;-56
2023/04/08 06:28:36;;;;;;;5.70;1.80;;;;;;;16.53;98.99;100628.44;109009;1256;74065;-54
2023/04/08 06:31:05;;;;;;;6.50;1.90;;;;;;;16.91;94.22;100623.65;108981;1256;61700;-56
2023/04/08 06:33:34;;;;;;;8.20;2.00;;;;;;;17.35;87.33;100625.91;109036;1256;60103;-57
2023/04/08 06:36:03;;;;;;;7.00;2.00;;;;;;;17.63;74.19;100631.21;109032;1255;75062;-55
2023/04/08 06:38:35;;;;;;;6.20;1.90;;;;;;;17.70;72.52;100627.63;109019;1256;66987;-57
2023/04/08 06:41:06;;;;;;;4.00;2.00;;;;;;;17.67;69.20;100629.73;109088;1255;73717;-54
2023/04/08 06:43:36;;;;;;;5.60;2.10;;;;;;;17.46;70.60;100632.85;109009;1255;61591;-57
2023/04/08 06:46:05;;;;;;;5.30;1.80;;;;;;;17.17;67.86;100632.13;109021;1256;60365;-54
2023/04/08 06:48:36;;;;;;;5.90;2.00;;;;;;;16.78;72.82;100642.53;109066;1255;73801;-57
2023/04/08 06:51:06;;;;;;;5.40;1.80;;;;;;;16.42;76.08;100644.14;109028;1257;68227;-54
2023/04/08 06:53:37;;;;;;;4.80;2.00;;;;;;;16.19;82.99;100646.45;108954;1257;72791;-56
2023/04/08 06:56:05;;;;;;;5.10;1.60;;;;;;;16.08;84.77;100649.58;109024;1256;61442;-55
2023/04/08 06:58:34;;;;;;;6.10;1.90;;;;;;;15.90;86.99;100649.77;109157;1256;61333;-54
2023/04/08 07:01:03;;;;;;;4.60;1.90;;;;;;;15.79;89.03;100647.70;109101;1255;76361;-54
2023/04/08 07:03:33;;;;;;;3.70;1.50;;;;;;;15.86;89.40;100641.98;109109;1255;68112;-54
2023/04/08 07:06:03;;;;;;;5.60;1.90;;;;;;;16.04;93.88;100643.73;109152;1255;73677;-55
2023/04/08 07:08:31;;;;;;;7.20;2.50;;;;;;;16.34;91.10;100638.27;109105;1255;61171;-54
2023/04/08 07:11:04;;;;;;;4.70;1.70;;;;;;;16.58;83.36;100642.49;109074;1255;60130;-58
2023/04/08 07:13:33;;;;;;;4.80;2.10;;;;;;;16.69;80.45;100641.41;109074;1255;75526;-54
2023/04/08 07:16:02;;;;;;;5.20;2.20;;;;;;;16.80;78.30;100638.73;109123;1255;67433;-54
2023/04/08 07:18:32;;;;;;;8.40;2.30;;;;;;;16.87;76.46;100639.03;109092;1255;73574;-54
2023/04/08 07:21:01;;;;;;;5.60;1.90;;;;;;;16.85;74.56;100641.92;108995;1256;62177;-55
2023/04/08 07:23:31;;;;;;;5.40;1.70;;;;;;;16.86;76.34;100641.74;109100;1256;60602;-54
2023/04/08 07:26:06;;;;;;;8.00;1.60;;;;;;;16.97;78.19;100643.48;109098;1256;74279;-54
2023/04/08 07:28:34;;;;;;;5.40;2.30;;;;;;;17.04;73.44;100639.90;109152;1256;67158;-54
2023/04/08 07:31:13;;;;;;;4.30;2.00;;;;;;;17.15;77.55;100641.34;109081;1256;73875;-55
2023/04/08 07:33:42;;;;;;;6.30;1.70;;;;;;;17.36;69.91;100635.51;109111;1256;60057;-54
2023/04/08 07:36:17;;;;;;;7.90;2.50;;;;;;;17.56;71.03;100635.88;109103;1255;61413;-54
2023/04/08 07:38:46;;;;;;;6.30;2.60;;;;;;;17.83;64.87;100635.13;109055;1256;74835;-55
2023/04/08 07:41:18;;;;;;;7.10;3.20;;;;;;;17.88;59.53;100637.16;109114;1256;68079;-57
2023/04/08 07:43:47;;;;;;;5.80;2.90;;;;;;;17.75;62.00;100639.92;109052;1255;74145;-54
2023/04/08 07:46:15;;;;;;;6.50;2.30;;;;;;;17.64;59.16;100641.85;109087;1256;60164;-57
2023/04/08 07:48:43;;;;;;;7.20;1.90;;;;;;;17.48;62.08;100644.60;109054;1256;61463;-54
2023/04/08 07:51:12;;;;;;;4.50;1.70;;;;;;;17.23;63.81;100643.90;109078;1256;74939;-54
2023/04/08 07:53:41;;;;;;;5.90;1.90;;;;;;;16.94;61.72;100654.21;109100;1256;67257;-54
2023/04/08 07:56:13;;;;;;;4.40;1.70;;;;;;;16.53;63.17;100652.97;109077;1255;73523;-55
2023/04/08 07:58:42;;;;;;;4.70;1.70;;;;;;;16.22;67.43;100657.13;109076;1256;60313;-54
2023/04/08 08:01:21;;;;;;;4.70;1.60;;;;;;;16.01;71.95;100654.55;109167;1256;60460;-54
2023/04/08 08:03:51;;;;;;;4.00;1.60;;;;;;;15.92;76.39;100654.05;109089;1256;74124;-57
2023/04/08 08:06:21;;;;;;;7.30;2.10;;;;;;;15.91;80.31;100652.30;109076;1256;67859;-57
2023/04/08 08:08:51;;;;;;;8.80;1.70;;;;;;;16.02;81.62;100654.09;109097;1256;72991;-54
2023/04/08 08:11:21;;;;;;;4.90;1.80;;;;;;;16.14;81.97;100651.29;109097;1255;61352;-54
2023/04/08 08:13:52;;;;;;;5.10;2.20;;;;;;;16.27;80.52;100658.58;109054;1255;60275;-55
2023/04/08 08:16:27;;;;;;;7.70;1.90;;;;;;;16.27;78.37;100656.77;109132;1255;75878;-55
2023/04/08 08:18:56;;;;;;;8.00;2.00;;;;;;;16.18;81.64;100659.92;109119;1255;67036;-54
2023/04/08 08:21:26;;;;;;;4.70;1.70;;;;;;;16.11;78.89;100664.37;109076;1256;73879;-55
2023/04/08 08:23:55;;;;;;;3.30;1.60;;;;;;;16.09;78.73;100663.96;109064;1256;61365;-58
2023/04/08 08:26:24;;;;;;;9.10;2.10;;;;;;;16.05;82.54;100663.05;109101;1256;60440;-55
2023/04/08 08:28:54;;;;;;;7.60;1.90;;;;;;;16.11;87.74;100666.35;109160;1255;75539;-54
2023/04/08 08:31:22;;;;;;;7.70;1.80;;;;;;;16.22;87.28;100663.83;109083;1255;67997;-55
2023/04/08 08:33:51;;;;;;;4.30;1.60;;;;;;;16.32;86.50;100660.79;109074;1255;71862;-55
2023/04/08 08:36:21;;;;;;;6.30;2.40;;;;;;;16.38;84.90;100662.46;109138;1255;61228;-54
2023/04/08 08:38:52;;;;;;;6.30;1.70;;;;;;;16.44;87.65;100662.66;109127;1255;61222;-55
2023/04/08 08:41:20;;;;;;;5.60;1.60;;;;;;;16.51;90.29;100663.70;109098;1255;75055;-59
2023/04/08 08:43:49;;;;;;;6.80;2.30;;;;;;;16.55;84.80;100662.72;109008;1255;68042;-54
2023/04/08 08:46:18;;;;;;;6.50;2.10;;;;;;;16.48;82.17;100660.81;108916;1255;73428;-55
2023/04/08 08:48:46;;;;;;;8.30;2.20;;;;;;;16.46;83.95;100662.01;109122;1255;61607;-55
2023/04/08 08:51:15;;;;;;;5.20;2.10;;;;;;;16.53;84.66;100661.02;109076;1255;60077;-54
2023/04/08 08:53:45;;;;;;;5.70;2.00;;;;;;;16.61;85.89;100660.44;109057;1256;76427;-57
2023/04/08 08:56:14;;;;;;;8.20;2.10;;;;;;;16.78;85.13;100654.77;109115;1255;66584;-54
2023/04/08 08:58:46;;;;;;;4.50;1.70;;;;;;;17.10;83.81;100649.77;109160;1256;73666;-56
2023/04/08 09:01:37;;;;;;;6.60;1.70;;;;;;;17.45;79.82;100654.27;109081;1255;60559;-56
2023/04/08 09:04:06;;;;;;;5.90;1.90;;;;;;;17.88;81.48;100656.00;109157;1255;60327;-54
2023/04/08 09:06:38;;;;;;;8.40;2.30;;;;;;;18.35;74.52;100653.67;109027;1256;75593;-56
2023/04/08 09:09:09;;;;;;;4.40;2.00;;;;;;;18.56;64.41;100652.52;109089;1255;67095;-56
2023/04/08 09:11:45;;;;;;;6.00;2.20;;;;;;;18.45;62.63;100655.10;109060;1255;73690;-57
2023/04/08 09:14:17;;;;;;;6.60;1.80;;;;;;;18.40;64.26;100655.30;109078;1256;61335;-57
2023/04/08 09:16:47;;;;;;;5.80;2.00;;;;;;;18.31;62.57;100660.59;109055;1255;60118;-54
2023/04/08 09:19:15;;;;;;;6.10;2.10;;;;;;;18.18;66.06;100661.68;108931;1255;184629;-54
2023/04/08 09:21:46;;;;;;;5.00;2.20;;;;;;;18.20;68.62;100659.67;109085;1256;68140;-56
2023/04/08 09:24:29;;;;;;;7.10;1.80;;;;;;;18.38;67.15;100654.48;108817;1257;73736;-57
2023/04/08 09:26:57;;;;;;;7.20;2.30;;;;;;;18.41;64.28;100659.39;109018;1256;62180;-56
2023/04/08 09:29:26;;;;;;;4.60;1.90;;;;;;;18.25;65.33;100665.02;109008;1256;61666;-57
2023/04/08 09:32:01;;;;;;;8.90;2.20;;;;;;;18.05;61.69;100670.14;109077;1256;75565;-59
2023/04/08 09:34:33;;;;;;;7.20;2.40;;;;;;;17.89;65.61;100674.54;109122;1255;68244;-57
2023/04/08 09:37:01;;;;;;;9.40;2.10;;;;;;;17.94;64.83;100674.05;109064;1255;73708;-58
2023/04/08 09:39:31;;;;;;;5.70;1.80;;;;;;;18.02;63.67;100673.50;109075;1256;60368;-54
2023/04/08 09:42:00;;;;;;;7.90;2.20;;;;;;;18.07;65.33;100669.88;109051;1255;61328;-58
2023/04/08 09:44:29;;;;;;;4.80;1.60;;;;;;;18.14;69.04;100667.86;108919;1256;73429;-54
2023/04/08 09:47:17;;;;;;;6.10;2.20;;;;;;;18.31;65.04;100661.23;108886;1255;68336;-54
2023/04/08 09:49:49;;;;;;;5.30;1.90;;;;;;;18.30;61.19;100668.11;108825;1259;73733;-54
2023/04/08 09:52:43;;;;;;;8.70;2.30;;;;;;;18.19;62.79;100675.16;108872;1256;60371;-54
2023/04/08 09:55:12;;;;;;;7.10;2.20;;;;;;;18.08;62.61;100673.06;109095;1255;60590;-59
2023/04/08 09:57:42;;;;;;;8.30;2.70;;;;;;;17.98;65.96;100670.83;109111;1256;76280;-54
2023/04/08 10:00:14;;;;;;;7.50;2.30;;;;;;;18.00;65.44;100666.98;109151;1256;67937;-54
2023/04/08 10:03:10;;;;;;;6.50;2.10;;;;;;;18.08;63.37;100668.85;109040;1256;72855;-55
2023/04/08 10:05:41;;;;;;;5.30;2.10;;;;;;;18.08;63.17;100667.17;108902;1256;61395;-54
2023/04/08 10:08:09;;;;;;;4.70;2.00;;;;;;;18.12;66.22;100666.80;108925;1255;59810;-58
2023/04/08 10:10:38;;;;;;;6.70;2.00;;;;;;;18.22;62.66;100666.42;109120;1255;74901;-55
2023/04/08 10:13:14;;;;;;;5.10;2.00;;;;;;;18.28;60.59;100667.70;109132;1256;66436;-55
2023/04/08 10:15:44;;;;;;;7.00;3.00;;;;;;;18.33;61.81;100668.45;108873;1255;73088;-54
2023/04/08 10:18:13;;;;;;;5.80;2.40;;;;;;;18.39;62.97;100671.15;109072;1255;60338;-59
2023/04/08 10:20:42;;;;;;;10.00;2.20;;;;;;;18.33;56.71;100679.39;109070;1255;59368;-57
2023/04/08 10:23:12;;;;;;;6.60;1.90;;;;;;;18.14;52.17;100685.25;109185;1256;73688;-55
2023/04/08 10:25:46;;;;;;;5.90;2.00;;;;;;;17.92;52.00;100689.02;108940;1255;67924;-54
2023/04/08 10:28:19;;;;;;;7.70;2.80;;;;;;;17.66;54.72;100685.70;109051;1257;73547;-59
2023/04/08 10:30:48;;;;;;;;;;;;;;;17.39;60.03;100691.71;109119;1256;60311;-54
2023/04/08 10:33:17;;;;;;;4.50;2.00;;;;;;;17.16;67.79;100686.96;108916;1255;60270;-55
2023/04/08 10:35:52;;;;;;;8.60;2.10;;;;;;;16.99;67.40;100689.25;108933;1255;75428;-58
2023/04/08 10:38:21;;;;;;;6.80;1.80;;;;;;;16.94;60.56;100694.00;108940;1257;68030;-58
2023/04/08 10:40:50;;;;;;;7.60;1.90;;;;;;;16.98;56.04;100687.75;109094;1255;72766;-54
2023/04/08 10:43:18;;;;;;;5.60;2.00;;;;;;;17.09;54.32;100685.52;109110;1256;60292;-55
2023/04/08 10:45:50;;;;;;;5.80;1.60;;;;;;;17.19;53.16;100680.26;109118;1257;60340;-56
2023/04/08 10:48:21;;;;;;;7.30;1.80;;;;;;;17.23;52.25;100680.86;109080;1255;75403;-55
2023/04/08 10:50:59;;;;;;;5.80;2.00;;;;;;;17.22;50.93;100680.75;109127;1255;68439;-54
2023/04/08 10:53:29;;;;;;;5.40;1.70;;;;;;;17.22;51.76;100677.02;108891;1256;73935;-58
2023/04/08 10:56:12;;;;;;;9.20;2.00;;;;;;;17.25;50.98;100680.08;108783;1256;61381;-59
2023/04/08 10:58:48;;;;;;;7.60;1.90;;;;;;;17.32;49.72;100681.43;109092;1256;60026;-54
2023/04/08 11:01:17;;;;;;;6.60;2.50;;;;;;;17.33;49.24;100678.99;109105;1255;74652;-55
2023/04/08 11:03:46;;;;;;;9.20;1.80;;;;;;;17.31;50.07;100677.23;109072;1256;67752;-55
2023/04/08 11:06:15;;;;;;;8.80;2.80;;;;;;;17.29;49.60;100679.85;109103;1256;72671;-55
2023/04/08 11:08:44;;;;;;;5.80;2.40;;;;;;;17.33;49.35;100675.83;109120;1256;60024;-54
2023/04/08 11:11:12;;;;;;;10.10;2.70;;;;;;;17.52;50.88;100676.14;109095;1255;60237;-56
2023/04/08 11:13:44;;;;;;;7.10;2.00;;;;;;;17.80;48.96;100673.27;108853;1255;73850;-56
2023/04/08 11:16:20;;;;;;;7.40;2.40;;;;;;;18.08;46.84;100665.95;108976;1255;66722;-54
2023/04/08 11:18:50;;;;;;;6.00;2.30;;;;;;;18.33;45.16;100663.56;108850;1257;72589;-55
2023/04/08 11:21:22;;;;;;;13.20;2.30;;;;;;;18.54;45.28;100668.73;109119;1255;60427;-54
2023/04/08 11:23:51;;;;;;;8.70;2.10;;;;;;;18.77;44.43;100659.51;108936;1255;60030;-55
2023/04/08 11:26:21;;;;;;;6.30;2.30;;;;;;;18.93;45.04;100665.34;109117;1255;74641;-54
2023/04/08 11:28:50;;;;;;;8.30;1.90;;;;;;;19.12;44.12;100659.86;109077;1256;68722;-56
2023/04/08 11:31:19;;;;;;;6.90;2.90;;;;;;;19.28;43.64;100655.61;109082;1255;73673;-58